createdAt,value
2019-04-11T00:01:14.467Z,100496.36
2019-04-11T00:04:18.787Z,100492.93
2019-04-11T00:07:22.622Z,100499.06
2019-04-11T00:10:27.263Z,100490.81
2019-04-11T00:13:34.390Z,100492.03
2019-04-11T00:16:37.643Z,100498.83
2019-04-11T00:19:41.903Z,100496.77
2019-04-11T00:22:46.117Z,100499.64
2019-04-11T00:25:50.089Z,100503.08
2019-04-11T00:28:54.260Z,100504.23
2019-04-11T00:31:58.714Z,100507.38
2019-04-11T00:35:03.572Z,100511.05
2019-04-11T00:38:08.130Z,100514.41
2019-04-11T00:41:12.036Z,100510.94
2019-04-11T00:44:16.869Z,100509.89
2019-04-11T00:47:20.800Z,100506.66
2019-04-11T00:50:25.325Z,100504.93
2019-04-11T00:53:29.880Z,100505.77
2019-04-11T00:56:34.587Z,100507.41
2019-04-11T00:59:39.079Z,100501.98
2019-04-11T01:02:43.363Z,100500.94
2019-04-11T01:05:48.440Z,100509.62
2019-04-11T01:08:53.725Z,100516.62
2019-04-11T01:11:58.467Z,100510.70
2019-04-11T01:15:03.164Z,100514.28
2019-04-11T01:18:07.029Z,100511.41
2019-04-11T01:21:12.311Z,100514.36
2019-04-11T01:24:17.675Z,100519.20
2019-04-11T01:27:23.621Z,100521.41
2019-04-11T01:30:35.251Z,100524.54
2019-04-11T01:33:40.164Z,100528.28
2019-04-11T01:36:45.055Z,100528.03
2019-04-11T01:39:57.817Z,100526.56
2019-04-11T01:43:01.984Z,100529.58
2019-04-11T01:46:06.261Z,100524.95
2019-04-11T01:49:17.237Z,100528.67
2019-04-11T01:52:22.424Z,100534.98
2019-04-11T01:55:28.193Z,100538.69
2019-04-11T01:58:32.997Z,100541.48
2019-04-11T02:01:51.163Z,100543.73
2019-04-11T02:05:02.852Z,100544.84
2019-04-11T02:08:07.234Z,100540.27
2019-04-11T02:11:12.919Z,100545.45
2019-04-11T02:14:19.487Z,100551.57
2019-04-11T02:17:24.375Z,100546.67
2019-04-11T02:20:29.196Z,100550.08
2019-04-11T02:24:07.879Z,100551.05
2019-04-11T02:27:30.851Z,100557.65
2019-04-11T02:30:39.187Z,100557.58
2019-04-11T02:33:43.960Z,100556.61
2019-04-11T02:36:49.055Z,100560.03
2019-04-11T02:39:55.318Z,100566.50
2019-04-11T02:43:00.255Z,100566.30
2019-04-11T02:46:17.521Z,100562.23
2019-04-11T02:49:11.108Z,100565.66
2019-04-11T02:52:17.079Z,100569.14
2019-04-11T02:55:22.159Z,100565.67
2019-04-11T02:58:27.813Z,100572.27
2019-04-11T03:01:34.063Z,100570.31
2019-04-11T03:04:39.325Z,100580.70
2019-04-11T03:07:45.843Z,100579.97
2019-04-11T03:10:51.441Z,100579.84
2019-04-11T03:13:58.355Z,100580.72
2019-04-11T03:17:14.088Z,100586.30
2019-04-11T03:20:21.056Z,100595.83
2019-04-11T03:23:18.549Z,100595.98
2019-04-11T03:26:21.526Z,100596.84
2019-04-11T03:29:26.733Z,100601.64
2019-04-11T03:33:17.370Z,100602.87
2019-04-11T03:39:05.446Z,100607.01
2019-04-11T03:42:04.071Z,100611.78
2019-04-11T03:45:20.430Z,100605.62
2019-04-11T03:48:18.021Z,100607.81
2019-04-11T03:51:10.941Z,100610.69
2019-04-11T03:54:15.787Z,100606.34
2019-04-11T03:57:21.561Z,100608.58
2019-04-11T04:00:30.372Z,100612.56
2019-04-11T04:03:31.906Z,100613.47
2019-04-11T04:06:37.406Z,100615.23
2019-04-11T04:09:45.916Z,100619.58
2019-04-11T04:12:51.751Z,100621.38
2019-04-11T04:16:12.074Z,100630.96
2019-04-11T04:19:18.413Z,100631.55
2019-04-11T04:22:29.405Z,100632.99
2019-04-11T04:25:34.699Z,100635.22
2019-04-11T04:28:40.850Z,100640.84
2019-04-11T04:31:46.622Z,100638.17
2019-04-11T04:34:52.842Z,100648.28
2019-04-11T04:37:57.048Z,100645.70
2019-04-11T04:41:16.321Z,100650.37
2019-04-11T04:44:10.502Z,100651.67
2019-04-11T04:47:23.042Z,100649.45
2019-04-11T04:50:22.334Z,100654.77
2019-04-11T04:53:28.248Z,100660.51
2019-04-11T04:56:33.100Z,100661.12
2019-04-11T04:59:39.985Z,100671.21
2019-04-11T05:02:44.635Z,100670.75
2019-04-11T05:05:48.810Z,100669.45
2019-04-11T05:08:53.014Z,100670.39
2019-04-11T05:11:56.800Z,100676.02
2019-04-11T05:15:01.595Z,100674.70
2019-04-11T05:18:06.289Z,100672.48
2019-04-11T05:21:10.763Z,100681.63
2019-04-11T05:24:14.761Z,100682.01
2019-04-11T05:27:18.642Z,100688.11
2019-04-11T05:30:23.253Z,100688.02
2019-04-11T05:33:27.465Z,100694.87
2019-04-11T05:36:32.343Z,100698.31
2019-04-11T05:39:36.618Z,100702.59
2019-04-11T05:42:41.710Z,100707.83
2019-04-11T05:45:45.825Z,100703.98
2019-04-11T05:49:05.409Z,100712.66
2019-04-11T05:52:10.807Z,100708.22
2019-04-11T05:55:15.584Z,100712.94
2019-04-11T05:58:20.742Z,100716.28
2019-04-11T06:01:32.192Z,100715.70
2019-04-11T06:04:42.402Z,100711.23
2019-04-11T06:07:55.586Z,100711.93
2019-04-11T06:11:06.515Z,100719.59
2019-04-11T06:14:17.233Z,100718.52
2019-04-11T06:17:23.913Z,100725.26
2019-04-11T06:20:43.220Z,100731.28
2019-04-11T06:24:12.583Z,100734.76
2019-04-11T06:27:20.044Z,100731.14
2019-04-11T06:30:42.398Z,100734.03
2019-04-11T06:33:51.051Z,100739.20
2019-04-11T06:37:14.229Z,100730.68
2019-04-11T06:40:38.403Z,100727.50
2019-04-11T06:43:50.556Z,100730.69
2019-04-11T06:47:05.449Z,100733.30
2019-04-11T06:50:15.236Z,100736.71
2019-04-11T06:53:23.817Z,100735.05
2019-04-11T06:56:36.995Z,100738.71
2019-04-11T06:59:43.416Z,100745.35
2019-04-11T07:02:55.183Z,100740.55
2019-04-11T07:06:01.331Z,100744.04
2019-04-11T07:09:35.465Z,100743.36
2019-04-11T07:12:58.951Z,100737.38
2019-04-11T07:16:03.279Z,100738.89
2019-04-11T07:19:32.609Z,100729.20
2019-04-11T07:22:55.314Z,100734.33
2019-04-11T07:26:22.978Z,100742.94
2019-04-11T07:29:55.089Z,100733.42
2019-04-11T07:33:12.894Z,100739.44
2019-04-11T07:36:36.032Z,100736.84
2019-04-11T07:39:58.589Z,100738.48
2019-04-11T07:43:11.529Z,100752.08
2019-04-11T07:46:34.999Z,100742.20
2019-04-11T07:49:40.982Z,100750.17
2019-04-11T07:52:49.440Z,100744.77
2019-04-11T07:55:55.456Z,100745.85
2019-04-11T07:59:02.933Z,100751.66
2019-04-11T08:02:33.252Z,100755.84
2019-04-11T08:06:05.348Z,100756.40
2019-04-11T08:09:27.425Z,100756.70
2019-04-11T08:12:31.983Z,100760.56
2019-04-11T08:15:54.395Z,100759.03
2019-04-11T08:19:21.123Z,100753.82
2019-04-11T08:22:53.649Z,100753.72
2019-04-11T08:26:18.119Z,100745.10
2019-04-11T08:29:22.339Z,100756.27
2019-04-11T08:32:48.296Z,100750.30
2019-04-11T08:36:24.039Z,100748.48
2019-04-11T08:39:33.351Z,100747.79
2019-04-11T08:43:03.118Z,100744.09
2019-04-11T08:46:13.337Z,100739.84
2019-04-11T08:49:33.004Z,100754.68
2019-04-11T08:52:44.432Z,100741.05
2019-04-11T08:55:58.850Z,100752.88
2019-04-11T08:59:41.991Z,100748.52
2019-04-11T09:02:53.388Z,100754.98
2019-04-11T09:06:25.790Z,100749.61
2019-04-11T09:09:57.753Z,100750.69
2019-04-11T09:13:31.315Z,100748.77
2019-04-11T09:16:48.305Z,100751.64
2019-04-11T09:20:11.529Z,100752.67
2019-04-11T09:23:18.026Z,100748.13
2019-04-11T09:26:47.894Z,100742.95
2019-04-11T09:29:56.614Z,100739.13
2019-04-11T09:33:39.428Z,100739.92
2019-04-11T09:36:58.129Z,100737.99
2019-04-11T09:40:24.223Z,100743.91
2019-04-11T09:43:30.027Z,100740.88
2019-04-11T09:46:59.706Z,100745.53
2019-04-11T09:50:04.575Z,100747.30
2019-04-11T09:53:09.963Z,100739.88
2019-04-11T09:56:33.302Z,100740.96
2019-04-11T09:59:50.180Z,100738.56
2019-04-11T10:03:10.800Z,100744.91
2019-04-11T10:06:36.936Z,100743.06
2019-04-11T10:10:02.890Z,100754.88
2019-04-11T10:13:24.991Z,100745.11
2019-04-11T10:16:48.665Z,100752.25
2019-04-11T10:20:06.492Z,100752.39
2019-04-11T10:23:20.819Z,100749.80
2019-04-11T10:26:29.956Z,100751.53
2019-04-11T10:30:08.640Z,100751.42
2019-04-11T10:33:31.666Z,100747.46
2019-04-11T10:36:43.229Z,100744.63
2019-04-11T10:40:04.510Z,100740.50
2019-04-11T10:43:09.809Z,100741.46
2019-04-11T10:46:33.286Z,100750.80
2019-04-11T10:50:03.429Z,100746.28
2019-04-11T10:53:08.855Z,100754.48
2019-04-11T10:56:31.202Z,100750.17
2019-04-11T10:59:35.582Z,100749.73
2019-04-11T11:03:11.714Z,100752.59
2019-04-11T11:06:17.733Z,100753.34
2019-04-11T11:09:54.654Z,100753.55
2019-04-11T11:13:11.877Z,100752.36
2019-04-11T11:16:16.981Z,100751.52
2019-04-11T11:19:50.048Z,100746.88
2019-04-11T11:23:00.187Z,100748.33
2019-04-11T11:26:19.669Z,100744.02
2019-04-11T11:29:47.546Z,100741.92
2019-04-11T11:32:51.815Z,100741.73
2019-04-11T11:36:25.610Z,100749.56
2019-04-11T11:39:58.931Z,100748.72
2019-04-11T11:43:17.573Z,100749.20
2019-04-11T11:46:50.726Z,100753.70
2019-04-11T11:50:00.152Z,100751.85
2019-04-11T11:53:18.925Z,100742.25
2019-04-11T11:56:24.067Z,100742.70
2019-04-11T11:59:38.578Z,100710.11
2019-04-11T12:02:54.036Z,100740.20
2019-04-11T12:06:00.936Z,100740.72
2019-04-11T12:09:24.590Z,100742.41
2019-04-11T12:12:53.931Z,100744.16
2019-04-11T12:16:16.074Z,100736.41
2019-04-11T12:19:22.380Z,100734.66
2019-04-11T12:22:28.428Z,100731.31
2019-04-11T12:25:37.070Z,100728.45
2019-04-11T12:28:59.572Z,100731.84
2019-04-11T12:32:06.251Z,100730.36
2019-04-11T12:35:27.798Z,100730.73
2019-04-11T12:38:54.678Z,100727.34
2019-04-11T12:42:07.196Z,100717.94
2019-04-11T12:45:39.319Z,100716.50
2019-04-11T12:48:46.585Z,100721.58
2019-04-11T12:52:08.706Z,100726.72
2019-04-11T12:55:15.536Z,100717.90
2019-04-11T12:58:31.594Z,100714.25
2019-04-11T13:02:07.889Z,100720.44
2019-04-11T13:05:13.573Z,100711.13
2019-04-11T13:08:36.280Z,100711.61
2019-04-11T13:11:42.211Z,100709.03
2019-04-11T13:14:59.731Z,100702.36
2019-04-11T13:18:14.717Z,100702.14
2019-04-11T13:21:28.300Z,100695.04
2019-04-11T13:25:00.599Z,100694.17
2019-04-11T13:28:04.622Z,100690.67
2019-04-11T13:31:26.480Z,100693.92
2019-04-11T13:34:30.627Z,100696.71
2019-04-11T13:37:52.867Z,100692.59
2019-04-11T13:41:16.213Z,100690.03
2019-04-11T13:44:34.608Z,100688.22
2019-04-11T13:48:00.581Z,100685.48
2019-04-11T13:51:08.700Z,100686.81
2019-04-11T13:54:36.983Z,100687.34
2019-04-11T13:57:59.946Z,100686.05
2019-04-11T14:01:10.820Z,100688.16
2019-04-11T14:04:21.007Z,100686.42
2019-04-11T14:07:25.036Z,100685.25
2019-04-11T14:10:31.531Z,100683.35
2019-04-11T14:13:42.705Z,100670.47
2019-04-11T14:16:54.777Z,100670.23
2019-04-11T14:20:28.273Z,100664.39
2019-04-11T14:23:41.947Z,100669.81
2019-04-11T14:26:48.307Z,100669.81
2019-04-11T14:30:05.120Z,100668.27
2019-04-11T14:33:10.565Z,100669.00
2019-04-11T14:36:34.002Z,100678.56
2019-04-11T14:39:40.645Z,100674.83
2019-04-11T14:43:06.574Z,100677.24
2019-04-11T14:46:32.207Z,100675.42
2019-04-11T14:49:40.566Z,100668.27
2019-04-11T14:52:59.453Z,100667.36
2019-04-11T14:56:06.335Z,100673.30
2019-04-11T14:59:44.642Z,100671.61
2019-04-11T15:03:10.596Z,100678.07
2019-04-11T15:06:21.973Z,100674.41
2019-04-11T15:09:46.439Z,100669.07
2019-04-11T15:12:49.422Z,100673.38
2019-04-11T15:16:11.007Z,100677.69
2019-04-11T15:19:15.090Z,100677.81
2019-04-11T15:22:27.340Z,100667.58
2019-04-11T15:26:08.907Z,100674.66
2019-04-11T15:29:32.001Z,100676.70
2019-04-11T15:32:49.225Z,100672.02
2019-04-11T15:35:57.804Z,100677.17
2019-04-11T15:39:14.352Z,100679.06
2019-04-11T15:42:27.961Z,100687.03
2019-04-11T15:45:55.511Z,100678.52
2019-04-11T15:49:21.210Z,100678.63
2019-04-11T15:52:24.476Z,100679.19
2019-04-11T15:55:53.167Z,100683.73
2019-04-11T15:59:02.841Z,100687.03
2019-04-11T16:02:28.962Z,100683.94
2019-04-11T16:05:50.716Z,100680.69
2019-04-11T16:08:57.723Z,100677.24
2019-04-11T16:12:09.247Z,100688.66
2019-04-11T16:15:14.918Z,100688.66
2019-04-11T16:18:50.238Z,100690.09
2019-04-11T16:22:08.847Z,100679.84
2019-04-11T16:25:17.491Z,100679.84
2019-04-11T16:28:39.733Z,100688.37
2019-04-11T16:31:45.905Z,100686.16
2019-04-11T16:34:58.934Z,100686.16
2019-04-11T16:38:04.510Z,100694.04
2019-04-11T16:41:26.654Z,100685.73
2019-04-11T16:44:41.073Z,100700.66
2019-04-11T16:48:10.449Z,100705.19
2019-04-11T16:51:14.376Z,100700.49
2019-04-11T16:54:18.580Z,100701.30
2019-04-11T16:57:23.141Z,100703.39
2019-04-11T17:00:27.519Z,100707.03
2019-04-11T17:03:31.530Z,100716.68
2019-04-11T17:06:55.380Z,100719.40
2019-04-11T17:09:59.363Z,100721.68
2019-04-11T17:13:03.269Z,100720.36
2019-04-11T17:16:10.345Z,100725.89
2019-04-11T17:19:14.482Z,100726.47
2019-04-11T17:22:18.892Z,100733.06
2019-04-11T17:25:24.308Z,100732.55
2019-04-11T17:28:28.145Z,100733.88
2019-04-11T17:31:32.224Z,100728.55
2019-04-11T17:34:36.463Z,100735.44
2019-04-11T17:37:40.578Z,100737.55
2019-04-11T17:40:44.397Z,100743.09
2019-04-11T17:43:51.546Z,100739.31
2019-04-11T17:46:56.383Z,100745.09
2019-04-11T17:49:59.753Z,100745.93
2019-04-11T17:53:03.713Z,100746.20
2019-04-11T17:56:07.980Z,100755.87
2019-04-11T17:59:12.230Z,100755.59
2019-04-11T18:02:16.276Z,100757.16
2019-04-11T18:05:20.529Z,100756.09
2019-04-11T18:08:24.651Z,100764.95
2019-04-11T18:11:28.879Z,100768.84
2019-04-11T18:14:33.395Z,100772.41
2019-04-11T18:17:37.502Z,100776.09
2019-04-11T18:20:41.562Z,100779.50
2019-04-11T18:23:49.815Z,100783.29
2019-04-11T18:26:52.457Z,100793.37
2019-04-11T18:29:56.442Z,100794.69
2019-04-11T18:33:00.292Z,100794.23
2019-04-11T18:36:06.186Z,100797.28
2019-04-11T18:39:10.566Z,100794.77
2019-04-11T18:42:14.780Z,100801.61
2019-04-11T18:45:19.355Z,100811.06
2019-04-11T18:48:23.258Z,100810.86
2019-04-11T18:51:27.160Z,100817.66
2019-04-11T18:54:31.466Z,100817.88
2019-04-11T18:57:35.382Z,100827.89
2019-04-11T19:00:39.671Z,100834.32
2019-04-11T19:03:43.986Z,100834.28
2019-04-11T19:06:47.986Z,100836.05
2019-04-11T19:09:51.986Z,100838.28
2019-04-11T19:12:56.005Z,100836.78
2019-04-11T19:16:00.138Z,100840.35
2019-04-11T19:19:04.007Z,100849.31
2019-04-11T19:22:08.042Z,100843.63
2019-04-11T19:25:12.514Z,100853.59
2019-04-11T19:28:16.647Z,100849.05
2019-04-11T19:31:20.453Z,100849.92
2019-04-11T19:34:24.694Z,100854.47
2019-04-11T19:37:30.055Z,100855.37
2019-04-11T19:40:33.878Z,100860.23
2019-04-11T19:43:40.556Z,100860.31
2019-04-11T19:46:43.708Z,100864.20
2019-04-11T19:49:48.029Z,100862.73
2019-04-11T19:52:55.166Z,100858.55
2019-04-11T19:56:05.365Z,100863.22
2019-04-11T19:59:09.670Z,100865.13
2019-04-11T20:02:13.763Z,100859.41
2019-04-11T20:05:17.592Z,100859.38
2019-04-11T20:08:21.780Z,100858.55
2019-04-11T20:11:26.084Z,100855.02
2019-04-11T20:14:34.178Z,100858.13
2019-04-11T20:17:44.217Z,100863.20
2019-04-11T20:20:41.720Z,100857.63
2019-04-11T20:23:45.463Z,100872.81
2019-04-11T20:26:50.350Z,100871.60
2019-04-11T20:29:55.337Z,100868.40
2019-04-11T20:33:02.912Z,100874.66
2019-04-11T20:36:04.816Z,100871.03
2019-04-11T20:39:09.293Z,100872.77
2019-04-11T20:42:13.105Z,100880.33
2019-04-11T20:45:16.932Z,100875.50
2019-04-11T20:48:20.744Z,100883.67
2019-04-11T20:51:24.890Z,100886.78
2019-04-11T20:54:28.905Z,100890.07
2019-04-11T20:57:32.931Z,100890.50
2019-04-11T21:00:49.654Z,100894.04
2019-04-11T21:03:43.627Z,100893.27
2019-04-11T21:06:49.476Z,100896.20
2019-04-11T21:09:53.557Z,100898.79
2019-04-11T21:12:57.346Z,100899.69
2019-04-11T21:16:01.250Z,100905.23
2019-04-11T21:19:05.161Z,100900.64
2019-04-11T21:22:08.971Z,100897.63
2019-04-11T21:25:12.914Z,100903.26
2019-04-11T21:28:25.166Z,100900.81
2019-04-11T21:31:31.236Z,100898.78
2019-04-11T21:34:34.736Z,100899.83
2019-04-11T21:37:38.527Z,100901.05
2019-04-11T21:40:42.295Z,100905.54
2019-04-11T21:43:46.123Z,100906.85
2019-04-11T21:46:50.000Z,100913.58
2019-04-11T21:49:53.892Z,100915.78
2019-04-11T21:52:57.703Z,100917.63
2019-04-11T21:56:01.885Z,100927.70
2019-04-11T21:59:05.687Z,100920.27
2019-04-11T22:02:11.923Z,100928.99
2019-04-11T22:05:16.314Z,100928.72
2019-04-11T22:08:20.149Z,100935.31
2019-04-11T22:11:24.345Z,100935.53
2019-04-11T22:14:28.704Z,100932.21
2019-04-11T22:17:32.892Z,100935.13
2019-04-11T22:20:36.798Z,100936.49
2019-04-11T22:23:48.733Z,100932.55
2019-04-11T22:26:50.143Z,100934.84
2019-04-11T22:29:54.983Z,100932.88
2019-04-11T22:33:06.996Z,100937.31
2019-04-11T22:36:11.234Z,100938.20
2019-04-11T22:39:15.239Z,100938.66
2019-04-11T22:42:19.186Z,100943.33
2019-04-11T22:45:23.689Z,100942.32
2019-04-11T22:48:27.921Z,100943.57
2019-04-11T22:51:32.032Z,100949.70
2019-04-11T22:54:36.481Z,100948.14
2019-04-11T22:57:40.884Z,100945.07
2019-04-11T23:00:46.289Z,100942.53
2019-04-11T23:03:54.310Z,100947.76
2019-04-11T23:06:58.504Z,100944.30
2019-04-11T23:10:02.681Z,100945.72
2019-04-11T23:13:06.454Z,100952.70
2019-04-11T23:16:12.038Z,100955.26
2019-04-11T23:19:15.872Z,100957.95
2019-04-11T23:22:19.709Z,100958.05
2019-04-11T23:25:25.178Z,100958.55
2019-04-11T23:28:29.034Z,100965.06
2019-04-11T23:31:33.221Z,100971.11
2019-04-11T23:34:37.117Z,100971.55
2019-04-11T23:37:53.769Z,100976.03
2019-04-11T23:40:57.891Z,100978.75
2019-04-11T23:44:01.939Z,100972.92
2019-04-11T23:47:06.190Z,100979.41
2019-04-11T23:50:10.386Z,100976.30
2019-04-11T23:53:14.237Z,100979.78
2019-04-11T23:56:18.412Z,100984.98
2019-04-11T23:59:22.622Z,100976.40
